Time;durP1;ratioP1;P1;durP2;ratioP2;P2;SDS_P1;SDS_P2;PMS_P1;PMS_P2;Temp;Humidity;BMP_temperature;BMP_pressure;BME280_temperature;BME280_humidity;BME280_pressure;Samples;Min_cycle;Max_cycle;Signal;HPM_P1;HPM_P2
2022/11/29 00:01:06;;;;;;;108.50;24.63;;;8.50;99.90;;;;;;4990702;28;20698;-65
2022/11/29 00:03:32;;;;;;;130.32;26.17;;;8.60;99.90;;;;;;4996266;28;20363;-64
2022/11/29 00:06:07;;;;;;;111.43;24.45;;;8.60;99.90;;;;;;4996391;28;20080;-65
2022/11/29 00:08:32;;;;;;;;;;;8.60;99.90;;;;;;4993113;28;20042;-65
2022/11/29 00:11:03;;;;;;;144.00;25.83;;;8.60;99.90;;;;;;4993912;28;19976;-65
2022/11/29 00:13:29;;;;;;;167.65;27.15;;;8.50;99.90;;;;;;5006292;28;20495;-66
2022/11/29 00:15:54;;;;;;;124.97;25.52;;;8.50;99.90;;;;;;4982957;28;20045;-65
2022/11/29 00:18:20;;;;;;;106.30;23.20;;;8.50;99.90;;;;;;4994556;28;20037;-65
2022/11/29 00:20:45;;;;;;;108.05;22.08;;;8.50;99.90;;;;;;5012173;28;20038;-66
2022/11/29 00:23:11;;;;;;;144.32;23.27;;;8.50;99.90;;;;;;4996178;28;20518;-67
2022/11/29 00:25:37;;;;;;;140.32;22.27;;;8.60;99.90;;;;;;4995763;28;20447;-65
2022/11/29 00:28:03;;;;;;;148.80;24.85;;;8.60;99.90;;;;;;4995823;28;20045;-65
2022/11/29 00:30:28;;;;;;;131.38;23.73;;;8.50;99.90;;;;;;4991227;28;20042;-65
2022/11/29 00:32:54;;;;;;;122.65;22.52;;;8.60;99.90;;;;;;4996121;28;20038;-65
2022/11/29 00:35:20;;;;;;;218.07;27.98;;;8.60;99.90;;;;;;4996281;28;20057;-64
2022/11/29 00:37:45;;;;;;;117.70;22.73;;;8.60;99.90;;;;;;4996225;28;20125;-65
2022/11/29 00:40:11;;;;;;;154.25;24.73;;;8.50;99.90;;;;;;4990133;28;20030;-65
2022/11/29 00:42:37;;;;;;;127.88;23.08;;;8.50;99.90;;;;;;5012911;28;20074;-65
2022/11/29 00:45:02;;;;;;;143.40;22.85;;;8.50;99.90;;;;;;4995999;28;20033;-64
2022/11/29 00:47:28;;;;;;;88.15;21.48;;;8.50;99.90;;;;;;4979232;28;20049;-66
2022/11/29 00:49:54;;;;;;;127.80;23.27;;;8.50;99.90;;;;;;4988086;28;20045;-65
2022/11/29 00:52:19;;;;;;;105.57;22.48;;;8.60;99.90;;;;;;4995423;28;20064;-65
2022/11/29 00:54:45;;;;;;;60.95;18.92;;;8.50;99.90;;;;;;4995820;28;20084;-64
2022/11/29 00:57:10;;;;;;;175.73;26.00;;;8.50;99.90;;;;;;4995919;28;20045;-65
2022/11/29 00:59:42;;;;;;;97.72;21.63;;;8.50;99.90;;;;;;4986283;28;20056;-65
2022/11/29 01:02:07;;;;;;;80.70;20.80;;;8.60;99.90;;;;;;4995032;28;20092;-64
2022/11/29 01:04:36;;;;;;;110.70;21.40;;;8.60;99.90;;;;;;5013084;28;20049;-65
2022/11/29 01:07:02;;;;;;;94.20;22.02;;;8.60;99.90;;;;;;5013021;28;20084;-65
2022/11/29 01:09:27;;;;;;;113.03;22.88;;;8.60;99.90;;;;;;5002798;28;20392;-65
2022/11/29 01:11:53;;;;;;;81.82;17.98;;;8.60;99.90;;;;;;5007239;28;20048;-65
2022/11/29 01:14:19;;;;;;;115.28;22.13;;;8.50;99.90;;;;;;5013051;28;20046;-65
2022/11/29 01:16:44;;;;;;;104.13;20.20;;;8.50;99.90;;;;;;4995014;28;20033;-65
2022/11/29 01:19:11;;;;;;;64.75;18.38;;;8.50;99.90;;;;;;4992643;28;20038;-64
2022/11/29 01:21:37;;;;;;;90.35;19.50;;;8.60;99.90;;;;;;5012564;28;20037;-64
2022/11/29 01:24:04;;;;;;;108.82;20.92;;;8.50;99.90;;;;;;5012696;28;20084;-65
2022/11/29 01:26:30;;;;;;;78.47;19.02;;;8.40;99.90;;;;;;4985857;28;20053;-65
2022/11/29 01:28:57;;;;;;;165.50;23.77;;;8.40;99.90;;;;;;5003998;28;20038;-64
2022/11/29 01:31:34;;;;;;;118.18;21.52;;;8.40;99.90;;;;;;4978532;28;20354;-65
2022/11/29 01:34:02;;;;;;;115.95;20.85;;;8.40;99.90;;;;;;4994896;28;20038;-64
2022/11/29 01:36:29;;;;;;;109.28;19.85;;;8.40;99.90;;;;;;5012431;28;20378;-65
2022/11/29 01:38:57;;;;;;;86.43;20.30;;;8.40;99.90;;;;;;5007019;28;20029;-64
2022/11/29 01:41:25;;;;;;;89.97;18.77;;;8.40;99.90;;;;;;4985226;28;20148;-64
2022/11/29 01:44:12;;;;;;;102.97;20.48;;;8.40;99.90;;;;;;5012637;28;20034;-68
2022/11/29 01:46:41;;;;;;;114.35;21.63;;;8.50;99.90;;;;;;4987991;28;20042;-66
2022/11/29 01:49:27;;;;;;;175.10;21.88;;;8.40;99.90;;;;;;4988099;28;20038;-64
2022/11/29 01:51:57;;;;;;;154.20;21.70;;;8.40;99.90;;;;;;4989609;28;20061;-66
2022/11/29 01:54:24;;;;;;;135.82;23.67;;;8.40;99.90;;;;;;5012504;28;20057;-65
2022/11/29 01:56:51;;;;;;;144.63;23.63;;;8.40;99.90;;;;;;4995188;28;20072;-67
2022/11/29 01:59:24;;;;;;;142.90;23.00;;;8.30;99.90;;;;;;5003919;28;20038;-65
2022/11/29 02:01:50;;;;;;;190.85;24.92;;;8.40;99.90;;;;;;4975479;28;20041;-67
2022/11/29 02:04:18;;;;;;;110.30;20.77;;;8.30;99.90;;;;;;4994884;28;20160;-66
2022/11/29 02:06:44;;;;;;;121.53;22.02;;;8.40;99.90;;;;;;5011471;28;20120;-64
2022/11/29 02:09:22;;;;;;;108.93;18.30;;;8.30;99.90;;;;;;4992432;28;20046;-65
2022/11/29 02:12:05;;;;;;;124.63;19.27;;;8.30;99.90;;;;;;4992698;28;20138;-65
2022/11/29 02:15:04;;;;;;;136.05;19.40;;;8.40;99.90;;;;;;4994472;28;20042;-65
2022/11/29 02:18:07;;;;;;;160.15;21.02;;;8.30;99.90;;;;;;5011596;28;20447;-64
2022/11/29 02:20:41;;;;;;;122.50;18.80;;;8.40;99.90;;;;;;5001068;28;20134;-65
2022/11/29 02:23:20;;;;;;;;;;;8.40;99.90;;;;;;4995411;28;20041;-65
2022/11/29 02:26:11;;;;;;;120.50;19.70;;;8.30;99.90;;;;;;5015893;28;19930;-66
2022/11/29 02:28:54;;;;;;;151.50;22.52;;;8.30;99.90;;;;;;5013272;28;20052;-66
2022/11/29 02:31:53;;;;;;;100.43;20.33;;;8.20;99.90;;;;;;4991292;28;20042;-66
2022/11/29 02:34:22;;;;;;;60.17;17.02;;;8.30;99.90;;;;;;5015879;28;20037;-65
2022/11/29 02:36:50;;;;;;;91.68;18.70;;;8.20;99.90;;;;;;5016126;28;20085;-66
2022/11/29 02:39:39;;;;;;;94.97;19.33;;;8.20;99.90;;;;;;5010262;28;20343;-66
2022/11/29 02:42:20;;;;;;;75.53;16.77;;;8.20;99.90;;;;;;5015557;28;20496;-65
2022/11/29 02:45:07;;;;;;;77.60;17.52;;;8.20;99.90;;;;;;5015668;28;20046;-66
2022/11/29 02:48:01;;;;;;;101.47;17.33;;;8.20;99.90;;;;;;5015515;28;20057;-64
2022/11/29 02:50:34;;;;;;;100.07;18.27;;;8.10;99.90;;;;;;5008095;28;20034;-64
2022/11/29 02:53:20;;;;;;;82.28;18.55;;;8.20;99.90;;;;;;5014893;28;20045;-64
2022/11/29 02:55:55;;;;;;;88.38;17.42;;;8.10;99.90;;;;;;5015854;28;20061;-65
2022/11/29 02:58:32;;;;;;;114.75;20.23;;;8.20;99.90;;;;;;5015259;28;20062;-68
2022/11/29 03:01:17;;;;;;;91.22;18.63;;;8.20;99.90;;;;;;5002261;28;20049;-64
2022/11/29 03:03:52;;;;;;;88.00;17.05;;;8.20;99.90;;;;;;4997455;28;20048;-64
2022/11/29 03:06:41;;;;;;;72.38;17.88;;;8.10;99.90;;;;;;5004200;28;20157;-64
2022/11/29 03:09:17;;;;;;;51.67;14.23;;;8.10;99.90;;;;;;4995207;28;20149;-64
2022/11/29 03:12:08;;;;;;;70.88;14.95;;;8.00;99.90;;;;;;5008981;28;20101;-64
2022/11/29 03:15:01;;;;;;;80.55;16.45;;;8.00;99.90;;;;;;4994125;28;20042;-64
2022/11/29 03:18:04;;;;;;;90.93;17.33;;;8.00;99.90;;;;;;5000653;28;20098;-65
2022/11/29 03:21:06;;;;;;;56.97;14.05;;;8.00;99.90;;;;;;5012822;28;20104;-64
2022/11/29 03:23:55;;;;;;;77.70;13.48;;;7.90;99.90;;;;;;5014876;28;20450;-66
2022/11/29 03:26:58;;;;;;;45.95;12.38;;;8.10;99.90;;;;;;4992379;28;20549;-68
2022/11/29 03:29:35;;;;;;;66.20;13.70;;;8.00;99.90;;;;;;4975235;28;20085;-65
2022/11/29 03:32:16;;;;;;;67.95;13.63;;;8.00;99.90;;;;;;4989834;28;20050;-64
2022/11/29 03:34:53;;;;;;;85.00;14.73;;;8.00;99.90;;;;;;4972058;28;20053;-66
2022/11/29 03:37:49;;;;;;;68.90;13.73;;;8.00;99.90;;;;;;4997114;28;20041;-65
2022/11/29 03:40:20;;;;;;;77.20;14.95;;;7.90;99.90;;;;;;4981824;28;20075;-64
2022/11/29 03:43:12;;;;;;;83.40;17.30;;;7.90;99.90;;;;;;4998638;28;20045;-64
2022/11/29 03:45:42;;;;;;;72.32;16.60;;;7.90;99.90;;;;;;5014793;28;20076;-65
2022/11/29 03:48:19;;;;;;;71.40;17.05;;;7.90;99.90;;;;;;5014033;28;20053;-65
2022/11/29 03:50:55;;;;;;;80.28;15.73;;;7.90;99.90;;;;;;5008035;28;20038;-64
2022/11/29 03:53:33;;;;;;;114.18;17.85;;;7.90;99.90;;;;;;5014188;28;20049;-66
2022/11/29 03:56:20;;;;;;;103.22;17.88;;;7.80;99.90;;;;;;5014407;28;20045;-64
2022/11/29 03:59:03;;;;;;;94.25;18.02;;;7.80;99.90;;;;;;5003988;28;20213;-66
2022/11/29 04:01:36;;;;;;;99.18;17.60;;;7.90;99.90;;;;;;5011211;28;20383;-64
2022/11/29 04:04:21;;;;;;;99.70;17.05;;;7.80;99.90;;;;;;5014400;28;20292;-65
2022/11/29 04:07:05;;;;;;;74.65;15.57;;;7.80;99.90;;;;;;5013886;28;20514;-64
2022/11/29 04:09:44;;;;;;;97.97;17.48;;;7.70;99.90;;;;;;5005075;28;20070;-65
2022/11/29 04:12:42;;;;;;;64.35;15.80;;;7.70;99.90;;;;;;5011372;28;20045;-65
2022/11/29 04:15:25;;;;;;;80.47;16.55;;;7.70;99.90;;;;;;5014012;28;20037;-65
2022/11/29 04:18:18;;;;;;;68.55;15.90;;;7.90;99.90;;;;;;4991332;28;20038;-68
2022/11/29 04:21:13;;;;;;;114.10;18.38;;;7.80;99.90;;;;;;4994722;28;20039;-65
2022/11/29 04:24:03;;;;;;;60.40;14.50;;;7.80;99.90;;;;;;5008072;28;20042;-68
2022/11/29 04:26:47;;;;;;;84.82;17.77;;;7.80;99.90;;;;;;5014081;28;20060;-64
2022/11/29 04:29:40;;;;;;;69.85;17.00;;;7.90;99.90;;;;;;4982580;28;20034;-65
2022/11/29 04:32:26;;;;;;;70.05;16.30;;;7.90;99.90;;;;;;5013114;28;20385;-65
2022/11/29 04:35:03;;;;;;;101.88;18.00;;;7.90;99.90;;;;;;4991291;28;20038;-65
2022/11/29 04:38:02;;;;;;;78.38;19.02;;;7.80;99.90;;;;;;4999843;28;20049;-65
2022/11/29 04:40:47;;;;;;;84.82;18.63;;;7.80;99.90;;;;;;4991587;28;20418;-64
2022/11/29 04:43:56;;;;;;;109.13;17.80;;;7.90;99.90;;;;;;4988493;28;20113;-65
2022/11/29 04:47:09;;;;;;;122.05;18.98;;;8.00;99.90;;;;;;4992541;28;20058;-66
2022/11/29 04:49:52;;;;;;;137.18;22.10;;;7.90;99.90;;;;;;5007580;28;20026;-65
2022/11/29 04:52:34;;;;;;;135.05;21.73;;;7.80;99.90;;;;;;5013256;28;20050;-65
2022/11/29 04:55:30;;;;;;;113.50;20.55;;;7.80;99.90;;;;;;4999849;28;20064;-64
2022/11/29 04:58:36;;;;;;;172.25;23.42;;;7.70;99.90;;;;;;4999447;28;20077;-64
2022/11/29 05:01:19;;;;;;;;;;;7.70;99.90;;;;;;5007321;28;20113;-64
2022/11/29 05:04:23;;;;;;;133.48;22.60;;;7.80;99.90;;;;;;5012949;28;20346;-64
2022/11/29 05:07:07;;;;;;;140.23;23.50;;;7.70;99.90;;;;;;5011650;28;20394;-64
2022/11/29 05:10:30;;;;;;;89.32;20.30;;;7.80;99.90;;;;;;5004253;28;20116;-65
2022/11/29 05:13:16;;;;;;;135.77;21.98;;;7.90;99.90;;;;;;4933467;29;20062;-64
2022/11/29 05:16:17;;;;;;;133.60;20.77;;;7.70;99.90;;;;;;4933584;29;20048;-66
2022/11/29 05:18:56;;;;;;;176.40;22.73;;;7.80;99.90;;;;;;4948736;28;20058;-66
2022/11/29 05:21:47;;;;;;;150.05;21.38;;;7.70;99.90;;;;;;5002329;28;20507;-64
2022/11/29 05:24:30;;;;;;;147.93;23.75;;;7.80;99.90;;;;;;4999154;28;20045;-64
2022/11/29 05:27:23;;;;;;;164.48;24.30;;;7.80;99.90;;;;;;4999662;28;20420;-66
2022/11/29 05:30:00;;;;;;;121.30;21.10;;;7.80;99.90;;;;;;4992675;28;20046;-63
2022/11/29 05:32:38;;;;;;;128.90;22.65;;;7.80;99.90;;;;;;5012349;28;20147;-64
2022/11/29 05:35:35;;;;;;;131.15;21.73;;;7.70;99.90;;;;;;5011862;28;20096;-64
2022/11/29 05:38:14;;;;;;;158.65;22.45;;;7.70;99.90;;;;;;4992934;28;20092;-65
2022/11/29 05:41:26;;;;;;;203.88;22.88;;;7.70;99.90;;;;;;4988553;28;20042;-65
2022/11/29 05:44:28;;;;;;;182.00;22.70;;;7.70;99.90;;;;;;4913380;29;20044;-64
2022/11/29 05:47:00;;;;;;;128.98;19.58;;;7.80;99.90;;;;;;4912820;29;20130;-65
2022/11/29 05:49:55;;;;;;;131.65;19.35;;;7.70;99.90;;;;;;4965354;28;20054;-66
2022/11/29 05:53:04;;;;;;;144.77;19.73;;;7.70;99.90;;;;;;4972169;28;20382;-65
2022/11/29 05:55:49;;;;;;;185.60;22.20;;;7.70;99.90;;;;;;4976424;28;20043;-63
2022/11/29 05:58:52;;;;;;;222.27;25.05;;;7.70;99.90;;;;;;4978759;28;20042;-64
2022/11/29 06:01:25;;;;;;;159.43;21.30;;;7.70;99.90;;;;;;4978994;28;20482;-65
2022/11/29 06:04:12;;;;;;;182.18;20.95;;;7.60;99.90;;;;;;4991390;28;20046;-66
2022/11/29 06:07:08;;;;;;;185.35;21.20;;;7.60;99.90;;;;;;4980470;28;20091;-64
2022/11/29 06:09:50;;;;;;;156.45;20.90;;;7.70;99.90;;;;;;4968089;28;20038;-64
2022/11/29 06:12:20;;;;;;;151.48;20.25;;;7.70;99.90;;;;;;4960663;28;20058;-66
2022/11/29 06:14:55;;;;;;;166.07;21.33;;;7.70;99.90;;;;;;4983148;28;20101;-66
2022/11/29 06:17:58;;;;;;;162.68;20.52;;;7.70;99.90;;;;;;4983422;28;20058;-65
2022/11/29 06:20:32;;;;;;;82.30;15.45;;;7.60;99.90;;;;;;4976196;28;20153;-66
2022/11/29 06:23:47;;;;;;;158.77;20.58;;;7.60;99.90;;;;;;4981109;28;20030;-65
2022/11/29 06:26:53;;;;;;;186.10;19.75;;;7.60;99.90;;;;;;4948138;28;20082;-65
2022/11/29 06:30:05;;;;;;;134.73;16.30;;;7.60;99.90;;;;;;4952493;28;20050;-65
2022/11/29 06:33:15;;;;;;;126.75;16.55;;;7.50;99.90;;;;;;4969521;28;20054;-66
2022/11/29 06:35:59;;;;;;;110.82;16.02;;;7.60;99.90;;;;;;4962887;28;20119;-65
2022/11/29 06:38:29;;;;;;;144.82;17.35;;;7.60;99.90;;;;;;4991813;28;20041;-64
2022/11/29 06:40:57;;;;;;;148.48;16.67;;;7.50;99.90;;;;;;4990467;28;20121;-65
2022/11/29 06:43:24;;;;;;;174.55;18.50;;;7.60;99.90;;;;;;4973993;28;20084;-64
2022/11/29 06:46:04;;;;;;;148.02;16.67;;;7.50;99.90;;;;;;4991913;28;20042;-67
2022/11/29 06:48:41;;;;;;;110.40;16.38;;;7.50;99.90;;;;;;4991677;28;20491;-65
2022/11/29 06:51:32;;;;;;;133.93;15.63;;;7.50;99.90;;;;;;4974328;28;20050;-65
2022/11/29 06:54:26;;;;;;;141.82;17.23;;;7.40;99.90;;;;;;4992078;28;20105;-64
2022/11/29 06:57:19;;;;;;;116.95;16.40;;;7.40;99.90;;;;;;4974626;28;20050;-66
2022/11/29 07:00:40;;;;;;;178.40;16.88;;;7.40;99.90;;;;;;4991624;28;20108;-65
2022/11/29 07:03:34;;;;;;;114.60;16.30;;;7.50;99.90;;;;;;4979987;28;20374;-65
2022/11/29 07:06:09;;;;;;;110.80;14.98;;;7.40;99.90;;;;;;4972248;28;20107;-66
2022/11/29 07:08:35;;;;;;;108.68;15.43;;;7.40;99.90;;;;;;5011732;28;20124;-65
2022/11/29 07:11:01;;;;;;;183.20;19.60;;;7.40;99.90;;;;;;5002239;28;20532;-65
2022/11/29 07:13:32;;;;;;;128.00;17.88;;;7.40;99.90;;;;;;5001313;28;20141;-65
2022/11/29 07:16:26;;;;;;;118.53;17.52;;;7.40;99.90;;;;;;4989671;28;20029;-64
2022/11/29 07:19:21;;;;;;;96.85;16.40;;;7.50;99.90;;;;;;4990890;28;20046;-64
2022/11/29 07:21:56;;;;;;;56.80;13.23;;;7.40;99.90;;;;;;5007854;28;20068;-63
2022/11/29 07:24:37;;;;;;;153.48;18.60;;;7.40;99.90;;;;;;5015107;28;20050;-66
2022/11/29 07:27:05;;;;;;;124.93;17.40;;;7.40;99.90;;;;;;4999021;28;20046;-65
2022/11/29 07:30:05;;;;;;;148.45;18.27;;;7.50;99.90;;;;;;4989059;28;20128;-64
2022/11/29 07:32:41;;;;;;;125.05;17.08;;;7.40;99.90;;;;;;5014552;28;20097;-64
2022/11/29 07:35:16;;;;;;;118.35;16.15;;;7.40;99.90;;;;;;5014442;28;20474;-64
2022/11/29 07:38:21;;;;;;;120.10;16.58;;;7.40;99.90;;;;;;5014557;28;20049;-66
2022/11/29 07:41:28;;;;;;;171.35;25.50;;;7.40;99.90;;;;;;5011566;28;20355;-65
2022/11/29 07:44:15;;;;;;;99.75;24.90;;;7.50;99.90;;;;;;5014332;28;20056;-65
2022/11/29 07:46:41;;;;;;;137.85;22.23;;;7.50;99.90;;;;;;4990445;28;20426;-64
2022/11/29 07:49:09;;;;;;;79.03;15.88;;;7.50;99.90;;;;;;5010400;28;20435;-64
2022/11/29 07:51:35;;;;;;;66.38;14.20;;;7.50;99.90;;;;;;4986606;28;20083;-65
2022/11/29 07:54:01;;;;;;;114.05;13.30;;;7.60;99.90;;;;;;5014090;28;20054;-64
2022/11/29 07:56:26;;;;;;;75.22;14.27;;;7.60;99.90;;;;;;5014338;28;20100;-64
2022/11/29 07:58:52;;;;;;;82.22;15.50;;;7.60;99.90;;;;;;5012182;28;20104;-65
2022/11/29 08:01:17;;;;;;;79.65;14.68;;;7.50;99.90;;;;;;5009869;28;20096;-64
2022/11/29 08:03:43;;;;;;;63.03;12.93;;;7.60;99.90;;;;;;5000103;28;20052;-65
2022/11/29 08:06:10;;;;;;;78.05;14.07;;;7.50;99.90;;;;;;4996611;28;20110;-64
2022/11/29 08:08:36;;;;;;;105.50;14.52;;;7.60;99.90;;;;;;5013920;28;20100;-65
2022/11/29 08:11:11;;;;;;;74.40;13.35;;;7.50;99.90;;;;;;5002158;28;20092;-64
2022/11/29 08:13:36;;;;;;;;;;;7.50;99.90;;;;;;4980476;28;20054;-64
2022/11/29 08:16:02;;;;;;;100.40;14.35;;;7.50;99.90;;;;;;5013974;28;20250;-63
2022/11/29 08:18:27;;;;;;;95.93;12.23;;;7.50;99.90;;;;;;5013661;28;20038;-64
2022/11/29 08:20:54;;;;;;;113.78;13.50;;;7.50;99.90;;;;;;4999446;28;20081;-64
2022/11/29 08:23:20;;;;;;;155.80;16.42;;;7.40;99.90;;;;;;5013992;28;20037;-66
2022/11/29 08:25:47;;;;;;;107.93;13.32;;;7.50;99.90;;;;;;5013879;28;20046;-64
2022/11/29 08:28:13;;;;;;;84.63;12.75;;;7.40;99.90;;;;;;5013746;28;20084;-64
2022/11/29 08:30:39;;;;;;;49.50;11.23;;;7.40;99.90;;;;;;4999055;28;20043;-64
2022/11/29 08:33:05;;;;;;;74.85;12.48;;;7.50;99.90;;;;;;5013590;28;20149;-64
2022/11/29 08:35:30;;;;;;;35.00;10.88;;;7.40;99.90;;;;;;5013315;28;20095;-65
2022/11/29 08:37:56;;;;;;;58.90;11.05;;;7.50;99.90;;;;;;5013247;28;20132;-65
2022/11/29 08:40:22;;;;;;;49.80;11.20;;;7.50;99.90;;;;;;4993759;28;20049;-66
2022/11/29 08:42:48;;;;;;;63.38;12.65;;;7.50;99.90;;;;;;5013380;28;20042;-65
2022/11/29 08:45:14;;;;;;;27.67;10.50;;;7.50;99.90;;;;;;5013432;28;20103;-64
2022/11/29 08:47:41;;;;;;;46.53;11.80;;;7.40;99.90;;;;;;4980283;28;20690;-65
2022/11/29 08:50:16;;;;;;;110.03;13.18;;;7.60;99.90;;;;;;4972268;28;20045;-64
2022/11/29 08:55:33;;;;;;;59.25;11.82;;;7.40;99.90;;;;;;5013177;28;20057;-65
2022/11/29 08:58:04;;;;;;;59.95;10.80;;;7.40;99.90;;;;;;5010081;28;20054;-65
2022/11/29 09:00:31;;;;;;;67.28;10.68;;;7.50;99.90;;;;;;4998053;28;20038;-64
2022/11/29 09:03:58;;;;;;;74.32;11.70;;;7.30;99.90;;;;;;4984181;28;20487;-64
2022/11/29 09:05:46;;;;;;;45.47;10.38;;;7.30;99.90;;;;;;4986889;28;20437;-65
2022/11/29 09:08:11;;;;;;;50.95;11.18;;;7.30;99.90;;;;;;4995441;28;20066;-65
2022/11/29 09:10:40;;;;;;;52.40;10.77;;;7.40;99.90;;;;;;4974091;28;20391;-68
2022/11/29 09:13:07;;;;;;;56.97;10.30;;;7.40;99.90;;;;;;5012615;28;20096;-65
2022/11/29 09:15:33;;;;;;;56.88;10.75;;;7.30;99.90;;;;;;5012630;28;20443;-64
2022/11/29 09:18:04;;;;;;;55.33;10.07;;;7.40;99.90;;;;;;5012713;28;20034;-65
2022/11/29 09:20:32;;;;;;;69.00;11.43;;;7.40;99.90;;;;;;4982281;28;20042;-66
2022/11/29 09:22:59;;;;;;;58.15;11.07;;;7.40;99.90;;;;;;5012526;28;20030;-65
2022/11/29 09:25:26;;;;;;;63.38;13.25;;;7.30;99.90;;;;;;5012538;28;20051;-66
2022/11/29 09:27:52;;;;;;;70.43;13.75;;;7.30;99.90;;;;;;5012449;28;20033;-65
2022/11/29 09:30:18;;;;;;;53.72;11.57;;;7.40;99.90;;;;;;4999667;28;20042;-65
2022/11/29 09:32:45;;;;;;;41.20;12.20;;;7.40;99.90;;;;;;5010621;28;20385;-65
2022/11/29 09:35:10;;;;;;;60.20;13.15;;;7.50;99.90;;;;;;4995221;28;20061;-65
2022/11/29 09:37:36;;;;;;;53.80;13.30;;;7.50;99.90;;;;;;5012243;28;20033;-66
2022/11/29 09:40:03;;;;;;;54.83;14.07;;;7.50;99.90;;;;;;4992931;28;20045;-66
2022/11/29 09:43:09;;;;;;;40.03;13.57;;;7.60;99.90;;;;;;5011314;28;20133;-65
2022/11/29 09:45:41;;;;;;;42.38;13.40;;;7.70;99.90;;;;;;5004300;28;20728;-65
2022/11/29 09:48:44;;;;;;;40.85;14.10;;;7.60;99.90;;;;;;5012223;28;20037;-65
2022/11/29 09:51:35;;;;;;;37.50;14.63;;;7.70;99.90;;;;;;5008314;28;20411;-65
2022/11/29 09:54:43;;;;;;;35.15;14.43;;;7.70;99.90;;;;;;4994583;28;20050;-65
2022/11/29 09:57:11;;;;;;;35.80;14.32;;;7.70;99.90;;;;;;5011604;28;20049;-66
2022/11/29 09:59:48;;;;;;;29.35;13.80;;;7.80;99.90;;;;;;5007119;28;20046;-65
2022/11/29 10:02:35;;;;;;;38.30;14.10;;;7.80;99.90;;;;;;5011734;28;20137;-65
2022/11/29 10:05:12;;;;;;;27.63;13.57;;;7.80;99.90;;;;;;5012125;28;20041;-65
2022/11/29 10:08:00;;;;;;;35.80;14.75;;;7.90;99.90;;;;;;4978338;28;20042;-66
2022/11/29 10:10:39;;;;;;;39.47;14.15;;;7.80;99.90;;;;;;5001084;28;20092;-65
2022/11/29 10:13:22;;;;;;;29.15;14.27;;;7.90;99.90;;;;;;5011932;28;20296;-66
2022/11/29 10:15:53;;;;;;;46.80;15.85;;;8.00;99.90;;;;;;5012106;28;20045;-66
2022/11/29 10:18:33;;;;;;;42.33;16.70;;;8.00;99.90;;;;;;5012264;28;20030;-66
2022/11/29 10:21:04;;;;;;;43.97;15.13;;;8.10;99.90;;;;;;4999625;28;20042;-66
2022/11/29 10:23:36;;;;;;;30.73;14.55;;;8.10;99.90;;;;;;5011893;28;20042;-66
2022/11/29 10:26:06;;;;;;;28.95;14.70;;;8.10;99.90;;;;;;4998117;28;20469;-66
2022/11/29 10:28:34;;;;;;;31.25;14.30;;;8.10;99.90;;;;;;5012121;28;20038;-66
2022/11/29 10:31:25;;;;;;;25.02;13.75;;;8.10;99.90;;;;;;4997642;28;20025;-65
2022/11/29 10:33:53;;;;;;;23.92;14.70;;;8.20;99.90;;;;;;4993877;28;20143;-67
2022/11/29 10:36:28;;;;;;;23.55;13.30;;;8.20;99.90;;;;;;5011839;28;20069;-66
2022/11/29 10:39:01;;;;;;;22.67;13.20;;;8.20;99.90;;;;;;5010705;28;20089;-65
2022/11/29 10:41:27;;;;;;;20.77;12.70;;;8.30;99.90;;;;;;4984807;28;20050;-65
2022/11/29 10:43:56;;;;;;;21.75;13.10;;;8.30;99.90;;;;;;4999213;28;20096;-66
2022/11/29 10:46:35;;;;;;;22.23;13.35;;;8.30;99.90;;;;;;4996734;28;20113;-66
2022/11/29 10:49:03;;;;;;;26.17;13.50;;;8.30;99.90;;;;;;5013718;28;20056;-66
2022/11/29 10:51:30;;;;;;;23.58;14.07;;;8.40;99.90;;;;;;5013967;28;20069;-66
2022/11/29 10:54:20;;;;;;;20.77;12.90;;;8.30;99.90;;;;;;5015074;28;20073;-66
2022/11/29 10:56:47;;;;;;;17.90;11.63;;;8.30;99.90;;;;;;4989408;28;20042;-66
2022/11/29 10:59:22;;;;;;;22.70;12.18;;;8.40;99.90;;;;;;5011382;28;20366;-67
2022/11/29 11:01:49;;;;;;;18.33;11.68;;;8.50;99.90;;;;;;4989911;28;20037;-65
2022/11/29 11:04:25;;;;;;;17.30;10.50;;;8.40;99.90;;;;;;5015355;28;20042;-66
2022/11/29 11:06:55;;;;;;;17.38;11.45;;;8.60;99.90;;;;;;5015196;28;20073;-68
2022/11/29 11:09:34;;;;;;;18.65;10.77;;;8.50;99.90;;;;;;5010680;28;20042;-67
2022/11/29 11:12:07;;;;;;;20.85;11.30;;;8.50;99.90;;;;;;5011266;28;20042;-66
2022/11/29 11:14:43;;;;;;;21.08;11.30;;;8.50;99.90;;;;;;5015351;28;20370;-66
2022/11/29 11:17:24;;;;;;;19.05;11.13;;;8.60;99.90;;;;;;5014998;28;20034;-65
2022/11/29 11:20:17;;;;;;;22.65;11.50;;;8.70;99.90;;;;;;4989318;28;20046;-67
2022/11/29 11:22:43;;;;;;;23.02;11.07;;;8.70;99.90;;;;;;4988009;28;20339;-66
2022/11/29 11:25:35;;;;;;;18.27;9.98;;;8.60;99.90;;;;;;5015181;28;20042;-65
2022/11/29 11:28:20;;;;;;;20.77;10.73;;;8.70;99.90;;;;;;4991462;28;20413;-66
2022/11/29 11:30:54;;;;;;;;;;;8.70;99.90;;;;;;5002022;28;20042;-66
2022/11/29 11:33:24;;;;;;;19.63;11.18;;;8.70;99.90;;;;;;5014890;28;19944;-66
2022/11/29 11:36:10;;;;;;;16.98;9.90;;;8.70;99.90;;;;;;5000775;28;20053;-65
2022/11/29 11:38:48;;;;;;;18.38;10.60;;;8.70;99.90;;;;;;5014654;28;20756;-66
2022/11/29 11:44:22;;;;;;;18.45;9.63;;;8.80;99.90;;;;;;4999527;28;20144;-66
2022/11/29 11:46:50;;;;;;;17.77;9.82;;;8.80;99.90;;;;;;5014698;28;20414;-66
2022/11/29 11:49:44;;;;;;;16.67;9.63;;;8.90;99.90;;;;;;5010978;28;20046;-66
2022/11/29 11:52:29;;;;;;;19.65;10.10;;;9.00;99.90;;;;;;4987737;28;20053;-66
2022/11/29 11:54:58;;;;;;;17.50;9.32;;;9.00;99.90;;;;;;5014140;28;20044;-66
2022/11/29 11:57:25;;;;;;;19.05;8.13;;;9.10;99.90;;;;;;4996489;28;20418;-66
2022/11/29 11:59:54;;;;;;;16.00;8.80;;;9.00;99.90;;;;;;5009808;28;20034;-67
2022/11/29 12:02:38;;;;;;;17.98;9.40;;;9.00;99.90;;;;;;5014346;28;20038;-66
2022/11/29 12:05:17;;;;;;;24.60;9.57;;;9.00;99.90;;;;;;5013814;28;20050;-65
2022/11/29 12:07:56;;;;;;;17.88;10.60;;;9.10;99.90;;;;;;5013975;28;20328;-66
2022/11/29 12:10:25;;;;;;;21.38;11.65;;;9.10;99.90;;;;;;4953514;28;20460;-66
2022/11/29 12:12:53;;;;;;;25.55;11.63;;;9.00;99.90;;;;;;5014118;28;20112;-66
2022/11/29 12:15:24;;;;;;;27.23;10.68;;;9.10;99.90;;;;;;4996857;28;20045;-66
2022/11/29 12:18:04;;;;;;;23.80;10.85;;;9.00;99.90;;;;;;5014002;28;20112;-67
2022/11/29 12:20:38;;;;;;;21.70;11.25;;;9.10;99.90;;;;;;5002345;28;20071;-67
2022/11/29 12:23:13;;;;;;;17.35;9.75;;;9.00;99.90;;;;;;5013892;28;20207;-66
2022/11/29 12:25:56;;;;;;;18.20;10.13;;;9.10;99.90;;;;;;5013785;28;20098;-66
2022/11/29 12:28:31;;;;;;;26.10;11.63;;;9.10;99.90;;;;;;5003145;28;20053;-65
2022/11/29 12:31:27;;;;;;;24.15;11.98;;;9.00;99.90;;;;;;4998474;28;20050;-66
2022/11/29 12:34:34;;;;;;;20.63;10.57;;;9.10;99.90;;;;;;5013666;28;20069;-65
2022/11/29 12:37:27;;;;;;;25.23;10.90;;;9.10;99.90;;;;;;5013333;28;20053;-65
2022/11/29 12:40:00;;;;;;;20.35;11.35;;;9.00;99.90;;;;;;4964063;28;20052;-65
2022/11/29 12:42:58;;;;;;;27.45;11.73;;;9.10;99.90;;;;;;5008315;28;20042;-66
2022/11/29 12:45:35;;;;;;;20.77;12.10;;;9.00;99.90;;;;;;5001809;28;20096;-66
2022/11/29 12:48:31;;;;;;;22.05;12.43;;;9.10;99.90;;;;;;5013041;28;20362;-66
2022/11/29 12:51:14;;;;;;;24.42;11.68;;;9.10;99.90;;;;;;5010750;28;20033;-65
2022/11/29 12:54:09;;;;;;;18.55;11.02;;;9.10;99.90;;;;;;5012462;28;20783;-66
2022/11/29 12:56:52;;;;;;;23.80;13.52;;;9.10;99.90;;;;;;5005497;28;20121;-66
2022/11/29 12:59:54;;;;;;;26.98;14.77;;;9.10;99.90;;;;;;5003460;28;20093;-66
2022/11/29 13:02:41;;;;;;;37.25;15.75;;;9.00;99.90;;;;;;4981999;28;20038;-67
2022/11/29 13:05:21;;;;;;;21.55;13.60;;;9.10;99.90;;;;;;5012854;28;20104;-65
2022/11/29 13:08:18;;;;;;;21.20;12.70;;;9.10;99.90;;;;;;5012398;28;20090;-66
2022/11/29 13:11:05;;;;;;;20.92;12.27;;;9.10;99.90;;;;;;4997778;28;20116;-66
2022/11/29 13:13:44;;;;;;;25.33;12.35;;;9.00;99.90;;;;;;5007146;28;20038;-66
2022/11/29 13:16:34;;;;;;;22.45;12.73;;;9.00;99.90;;;;;;5013145;28;20137;-65
2022/11/29 13:19:17;;;;;;;22.90;13.77;;;9.10;99.90;;;;;;5011503;28;20431;-66
2022/11/29 13:22:08;;;;;;;31.35;13.73;;;9.00;99.90;;;;;;4997301;28;20140;-66
2022/11/29 13:24:48;;;;;;;31.15;14.73;;;9.00;99.90;;;;;;4988512;28;20046;-66
2022/11/29 13:27:18;;;;;;;33.22;15.43;;;9.10;99.90;;;;;;4994908;28;20057;-66
2022/11/29 13:29:45;;;;;;;25.10;13.98;;;9.10;99.90;;;;;;4986771;28;20145;-66
2022/11/29 13:32:23;;;;;;;23.90;13.80;;;9.20;99.90;;;;;;4989341;28;20061;-65
2022/11/29 13:34:50;;;;;;;22.60;12.80;;;9.20;99.90;;;;;;5012848;28;20038;-66
2022/11/29 13:37:31;;;;;;;23.25;12.52;;;9.20;99.90;;;;;;5012796;28;20151;-66
2022/11/29 13:40:15;;;;;;;24.20;12.38;;;9.20;99.90;;;;;;4980913;28;20088;-65